Time;durP1;ratioP1;P1;durP2;ratioP2;P2;SDS_P1;SDS_P2;PMS_P1;PMS_P2;Temp;Humidity;BMP_temperature;BMP_pressure;BME280_temperature;BME280_humidity;BME280_pressure;Samples;Min_cycle;Max_cycle;Signal;HPM_P1;HPM_P2
2022/07/21 00:01:42;;;;;;;21.10;19.40;;;22.40;99.90;;;;;;10456991;28;20247;-80
2022/07/21 00:06:46;;;;;;;20.83;19.23;;;22.50;99.90;;;;;;10438587;28;20217;-78
2022/07/21 00:11:48;;;;;;;20.93;19.27;;;22.50;99.90;;;;;;10437596;28;20197;-78
2022/07/21 00:16:50;;;;;;;20.80;19.20;;;22.50;99.90;;;;;;10455784;28;20233;-78
2022/07/21 00:21:55;;;;;;;20.83;18.93;;;22.50;99.90;;;;;;10438944;28;20201;-80
2022/07/21 00:26:57;;;;;;;20.67;18.77;;;22.50;99.90;;;;;;10438053;28;20225;-80
2022/07/21 00:32:00;;;;;;;20.23;18.53;;;22.50;99.90;;;;;;10433984;28;20261;-78
2022/07/21 00:37:03;;;;;;;22.33;20.43;;;22.50;99.90;;;;;;10434022;28;20235;-78
2022/07/21 00:42:06;;;;;;;21.37;19.77;;;22.50;99.90;;;;;;10447665;28;20301;-78
2022/07/21 00:47:08;;;;;;;21.17;19.30;;;22.50;99.90;;;;;;10446298;28;20292;-78
2022/07/21 00:52:11;;;;;;;21.47;19.33;;;22.50;99.90;;;;;;10447252;28;20197;-78
2022/07/21 00:57:15;;;;;;;20.40;18.70;;;22.50;99.90;;;;;;10445670;28;20608;-78
2022/07/21 01:02:17;;;;;;;20.00;18.47;;;22.50;99.90;;;;;;10429760;28;20259;-78
2022/07/21 01:07:21;;;;;;;20.67;18.87;;;22.50;99.90;;;;;;10442266;28;20209;-78
2022/07/21 01:12:23;;;;;;;19.90;18.40;;;22.40;99.90;;;;;;10445684;28;20204;-77
2022/07/21 01:17:26;;;;;;;20.40;18.70;;;22.50;99.90;;;;;;10436664;28;20223;-80
2022/07/21 01:22:29;;;;;;;20.03;18.50;;;22.60;99.90;;;;;;10446520;28;20209;-81
2022/07/21 01:27:31;;;;;;;20.00;18.30;;;22.70;99.90;;;;;;10466250;28;20221;-80
2022/07/21 01:32:33;;;;;;;20.10;18.33;;;22.70;99.90;;;;;;10458312;28;20201;-80
2022/07/21 01:37:42;;;;;;;19.23;17.67;;;22.70;99.90;;;;;;10458437;28;20217;-81
2022/07/21 01:42:44;;;;;;;19.57;17.20;;;22.80;99.90;;;;;;10460908;28;20209;-80
2022/07/21 01:47:46;;;;;;;17.70;16.13;;;22.80;99.90;;;;;;10461955;28;20207;-78
2022/07/21 01:52:49;;;;;;;17.20;15.80;;;22.80;99.90;;;;;;10445485;28;20585;-76
2022/07/21 01:57:52;;;;;;;18.07;16.43;;;22.70;99.90;;;;;;10428585;28;20235;-78
2022/07/21 02:02:54;;;;;;;16.70;15.40;;;22.60;99.90;;;;;;10420243;28;20634;-78
2022/07/21 02:07:57;;;;;;;15.33;13.73;;;22.70;99.90;;;;;;10450585;28;20572;-78
2022/07/21 02:12:59;;;;;;;15.30;14.10;;;22.60;99.90;;;;;;10444269;28;20569;-79
2022/07/21 02:18:01;;;;;;;14.80;13.37;;;22.50;99.90;;;;;;10444002;28;20255;-78
2022/07/21 02:23:05;;;;;;;14.90;13.80;;;22.40;99.90;;;;;;10420073;28;20205;-79
2022/07/21 02:28:07;;;;;;;17.10;15.80;;;22.30;99.90;;;;;;10419766;28;20239;-77
2022/07/21 02:33:09;;;;;;;15.83;14.43;;;22.30;99.90;;;;;;10450567;28;20197;-77
2022/07/21 02:38:13;;;;;;;16.47;15.27;;;22.20;99.90;;;;;;10450427;28;20221;-77
2022/07/21 02:43:15;;;;;;;15.83;14.53;;;22.10;99.90;;;;;;10443942;28;20215;-78
2022/07/21 02:48:17;;;;;;;16.80;15.30;;;22.00;99.90;;;;;;10419365;28;20300;-78
2022/07/21 02:53:22;;;;;;;16.70;15.40;;;21.80;99.90;;;;;;10424980;28;20198;-80
2022/07/21 02:58:26;;;;;;;17.73;16.33;;;21.70;99.90;;;;;;10449147;28;20296;-79
2022/07/21 03:03:30;;;;;;;17.13;15.60;;;21.70;99.90;;;;;;10465055;28;20675;-80
2022/07/21 03:08:34;;;;;;;17.50;16.30;;;21.70;99.90;;;;;;10458651;28;20728;-80
2022/07/21 03:13:36;;;;;;;17.30;16.00;;;21.60;99.90;;;;;;10460089;28;20560;-80
2022/07/21 03:18:38;;;;;;;16.77;15.57;;;21.70;99.90;;;;;;10462355;28;20225;-80
2022/07/21 03:23:45;;;;;;;15.43;14.23;;;21.60;99.90;;;;;;10449117;28;20291;-80
2022/07/21 03:28:47;;;;;;;15.80;14.73;;;21.60;99.90;;;;;;10467875;28;20274;-80
2022/07/21 03:33:49;;;;;;;13.37;12.37;;;21.60;99.90;;;;;;10466615;28;20197;-80
2022/07/21 03:38:52;;;;;;;16.00;14.60;;;21.60;99.90;;;;;;10468491;28;20229;-81
2022/07/21 03:43:54;;;;;;;16.30;15.20;;;21.60;99.90;;;;;;10465288;28;20227;-80
2022/07/21 03:48:56;;;;;;;16.73;15.53;;;21.70;99.90;;;;;;10467371;28;20197;-80
2022/07/21 03:54:01;;;;;;;14.50;13.53;;;21.70;99.90;;;;;;10449237;28;20255;-80
2022/07/21 03:59:03;;;;;;;16.50;15.30;;;21.80;99.90;;;;;;10466919;28;20221;-80
2022/07/21 04:04:05;;;;;;;16.30;15.20;;;21.90;99.90;;;;;;10466115;28;20642;-81
2022/07/21 04:09:09;;;;;;;15.93;14.63;;;22.00;99.90;;;;;;10466894;28;20198;-80
2022/07/21 04:14:11;;;;;;;16.30;15.20;;;22.10;99.90;;;;;;10448368;28;20227;-79
2022/07/21 04:19:13;;;;;;;16.13;14.93;;;22.20;99.90;;;;;;10449362;28;20227;-80
2022/07/21 04:24:16;;;;;;;13.20;12.00;;;22.20;99.90;;;;;;10466859;28;20220;-80
2022/07/21 04:29:18;;;;;;;14.53;13.53;;;22.30;99.90;;;;;;10466654;28;20215;-80
2022/07/21 04:34:21;;;;;;;14.13;13.00;;;22.30;99.90;;;;;;10452137;28;20618;-80
2022/07/21 04:39:24;;;;;;;14.57;13.53;;;22.20;99.90;;;;;;10449789;28;20296;-80
2022/07/21 04:44:26;;;;;;;13.67;12.67;;;22.20;99.90;;;;;;10450190;28;20276;-80
2022/07/21 04:49:28;;;;;;;13.07;12.17;;;22.20;99.90;;;;;;10467547;28;20200;-79
2022/07/21 04:54:32;;;;;;;12.83;11.93;;;22.20;99.90;;;;;;10465185;28;20252;-77
2022/07/21 04:59:35;;;;;;;13.80;12.60;;;22.20;99.90;;;;;;10470579;28;20284;-78
2022/07/21 05:04:37;;;;;;;13.50;12.50;;;22.20;99.90;;;;;;10462216;28;20221;-79
2022/07/21 05:09:40;;;;;;;14.13;12.93;;;22.20;99.90;;;;;;10460486;28;20287;-77
2022/07/21 05:14:42;;;;;;;13.53;12.53;;;22.20;99.90;;;;;;10460830;28;20296;-79
2022/07/21 05:19:48;;;;;;;13.03;12.03;;;22.10;99.90;;;;;;10461536;28;20224;-78
2022/07/21 05:24:52;;;;;;;12.70;11.80;;;22.20;99.90;;;;;;10462340;28;20762;-77
2022/07/21 05:29:54;;;;;;;12.90;12.00;;;22.20;99.90;;;;;;10438308;28;20193;-75
2022/07/21 05:34:56;;;;;;;14.33;13.20;;;22.20;99.90;;;;;;10427445;28;20278;-76
2022/07/21 05:40:00;;;;;;;13.70;12.70;;;22.20;99.90;;;;;;10426289;28;20221;-78
2022/07/21 05:45:03;;;;;;;13.13;12.17;;;22.30;99.90;;;;;;10449863;28;20220;-76
2022/07/21 05:50:07;;;;;;;14.23;12.80;;;22.30;99.90;;;;;;10443945;28;20281;-77
2022/07/21 05:55:11;;;;;;;13.40;12.30;;;22.50;99.90;;;;;;10430515;28;20603;-76
2022/07/21 06:00:13;;;;;;;13.03;11.93;;;22.70;99.90;;;;;;10440650;28;20217;-77
2022/07/21 06:05:15;;;;;;;13.60;12.20;;;22.80;99.90;;;;;;10444014;28;20241;-77
2022/07/21 06:10:19;;;;;;;13.47;12.47;;;23.00;99.90;;;;;;10451331;28;20229;-77
2022/07/21 06:15:21;;;;;;;15.07;13.97;;;23.00;99.90;;;;;;10448017;28;20296;-78
2022/07/21 06:20:25;;;;;;;14.17;13.07;;;23.10;99.90;;;;;;10450585;28;20221;-77
2022/07/21 06:25:28;;;;;;;13.90;12.80;;;23.10;99.90;;;;;;10424410;28;20329;-76
2022/07/21 06:30:30;;;;;;;14.00;13.00;;;23.20;99.90;;;;;;10430597;28;20229;-76
2022/07/21 06:35:32;;;;;;;14.60;13.57;;;23.20;99.90;;;;;;10441364;28;20217;-77
2022/07/21 06:40:36;;;;;;;14.40;13.30;;;23.40;99.90;;;;;;10450933;28;20249;-77
2022/07/21 06:45:38;;;;;;;14.03;12.73;;;23.60;99.90;;;;;;10432713;28;20317;-77
2022/07/21 06:50:40;;;;;;;12.73;11.77;;;23.80;99.90;;;;;;10418870;28;20632;-76
2022/07/21 06:55:44;;;;;;;12.00;11.20;;;23.90;99.90;;;;;;10457919;22;20251;-78
2022/07/21 07:00:47;;;;;;;11.40;10.60;;;23.90;99.90;;;;;;10471396;28;20221;-80
2022/07/21 07:05:50;;;;;;;11.97;10.97;;;24.00;99.90;;;;;;10470304;28;20275;-80
2022/07/21 07:10:53;;;;;;;11.20;10.40;;;24.00;99.90;;;;;;10467463;28;20190;-79
2022/07/21 07:15:55;;;;;;;13.30;12.20;;;24.20;99.90;;;;;;10475986;28;20217;-78
2022/07/21 07:20:57;;;;;;;10.30;9.50;;;24.30;99.90;;;;;;10470893;28;20228;-79
2022/07/21 07:26:01;;;;;;;11.67;10.70;;;24.50;99.90;;;;;;10454793;28;20217;-79
2022/07/21 07:31:03;;;;;;;11.60;10.60;;;24.70;99.90;;;;;;10472611;28;20213;-79
2022/07/21 07:36:08;;;;;;;10.50;9.70;;;24.80;99.90;;;;;;10474525;28;20217;-79
2022/07/21 07:41:11;;;;;;;10.97;10.17;;;25.00;99.90;;;;;;10469904;28;20224;-78
2022/07/21 07:46:14;;;;;;;10.93;10.13;;;25.30;99.90;;;;;;10471442;28;20216;-79
2022/07/21 07:51:16;;;;;;;10.60;9.80;;;25.50;99.90;;;;;;10471334;28;20189;-79
2022/07/21 07:56:20;;;;;;;10.60;9.80;;;25.70;99.90;;;;;;10474749;28;20259;-79
2022/07/21 08:01:22;;;;;;;9.60;8.90;;;26.10;99.90;;;;;;10468963;28;20225;-77
2022/07/21 08:06:24;;;;;;;9.87;9.17;;;26.40;99.90;;;;;;10445169;28;20217;-77
2022/07/21 08:11:27;;;;;;;9.20;8.60;;;26.60;99.90;;;;;;10452278;28;20288;-78
2022/07/21 08:16:29;;;;;;;12.03;8.73;;;26.80;99.90;;;;;;10451862;28;20308;-78
2022/07/21 08:21:33;;;;;;;9.83;9.13;;;27.20;99.90;;;;;;10441046;28;20213;-78
2022/07/21 08:26:37;;;;;;;9.20;8.30;;;27.60;99.90;;;;;;10455753;28;20227;-79
2022/07/21 08:31:39;;;;;;;8.90;8.30;;;27.50;99.90;;;;;;10449855;28;20291;-79
2022/07/21 08:36:41;;;;;;;10.47;9.47;;;27.50;99.90;;;;;;10446119;28;20228;-79
2022/07/21 08:41:45;;;;;;;9.77;9.00;;;27.80;99.90;;;;;;10466541;28;20207;-78
2022/07/21 08:46:50;;;;;;;8.53;8.03;;;28.40;99.40;;;;;;10462333;28;20216;-79
2022/07/21 08:51:53;;;;;;;8.30;7.70;;;28.90;97.60;;;;;;10445395;28;20575;-79
2022/07/21 08:56:56;;;;;;;8.40;7.80;;;28.90;95.80;;;;;;10453680;28;20225;-77
2022/07/21 09:01:59;;;;;;;9.20;8.60;;;28.50;96.30;;;;;;10450076;28;20255;-77
2022/07/21 09:07:03;;;;;;;9.47;8.73;;;28.20;96.30;;;;;;10447150;28;20259;-78
2022/07/21 09:12:09;;;;;;;8.93;8.30;;;28.60;96.60;;;;;;10454447;28;20280;-79
2022/07/21 09:17:12;;;;;;;9.40;8.70;;;29.20;94.70;;;;;;10440195;28;20672;-80
2022/07/21 09:22:18;;;;;;;6.83;6.13;;;29.70;93.40;;;;;;10463579;28;20569;-79
2022/07/21 09:27:23;;;;;;;7.70;7.20;;;30.20;92.10;;;;;;10465358;28;20248;-79
2022/07/21 09:32:27;;;;;;;7.13;6.73;;;30.70;89.70;;;;;;10459845;28;20201;-78
2022/07/21 09:37:29;;;;;;;8.50;7.90;;;31.10;88.00;;;;;;10462110;28;20239;-79
2022/07/21 09:42:35;;;;;;;7.83;7.23;;;31.50;84.50;;;;;;10455503;28;20201;-79
2022/07/21 09:47:38;;;;;;;6.83;6.40;;;31.80;81.10;;;;;;10459746;28;20223;-79
2022/07/21 09:52:43;;;;;;;7.83;7.23;;;32.10;82.40;;;;;;10456686;28;20525;-78
2022/07/21 09:57:46;;;;;;;6.60;6.20;;;32.60;76.30;;;;;;10440656;28;20232;-78
2022/07/21 10:02:49;;;;;;;6.47;6.00;;;33.10;75.00;;;;;;10432673;28;20275;-79
2022/07/21 10:07:51;;;;;;;7.10;6.60;;;34.00;70.10;;;;;;10429139;28;20243;-78
2022/07/21 10:12:55;;;;;;;6.18;5.88;;;35.00;67.70;;;;;;10417812;28;20247;-79
2022/07/21 10:18:00;;;;;;;6.28;5.68;;;36.20;63.80;;;;;;10424489;28;20221;-79
2022/07/21 10:23:11;;;;;;;5.45;5.15;;;37.40;57.20;;;;;;10432846;28;20565;-78
2022/07/21 10:28:18;;;;;;;4.80;4.53;;;37.80;57.40;;;;;;10425922;28;20216;-79
2022/07/21 10:33:23;;;;;;;5.80;5.50;;;36.90;56.30;;;;;;10417535;28;20204;-78
2022/07/21 10:38:28;;;;;;;6.20;5.80;;;35.50;55.80;;;;;;10438840;28;20227;-79
2022/07/21 10:43:44;;;;;;;5.90;5.40;;;34.00;57.90;;;;;;10424677;28;20198;-80
2022/07/21 10:48:49;;;;;;;6.23;5.87;;;32.60;59.20;;;;;;10438488;28;20217;-79
2022/07/21 10:54:21;;;;;;;6.63;6.23;;;31.50;65.00;;;;;;10460867;28;20239;-79
2022/07/21 10:59:24;;;;;;;6.60;6.10;;;30.70;61.50;;;;;;10438127;28;20256;-79
2022/07/21 11:04:26;;;;;;;6.07;5.67;;;30.20;64.70;;;;;;10462667;28;20255;-78
2022/07/21 11:09:29;;;;;;;6.30;5.90;;;29.80;68.20;;;;;;10459723;28;20197;-79
2022/07/21 11:14:43;;;;;;;7.63;7.13;;;29.60;68.20;;;;;;10443951;28;20193;-79
2022/07/21 11:19:48;;;;;;;6.13;5.73;;;29.40;70.00;;;;;;10458341;28;20700;-79
2022/07/21 11:24:53;;;;;;;6.60;6.20;;;29.10;67.30;;;;;;10465155;28;20222;-79
2022/07/21 11:30:00;;;;;;;5.90;5.33;;;28.90;69.40;;;;;;10468095;28;20284;-79
2022/07/21 11:35:04;;;;;;;6.47;6.03;;;28.70;70.80;;;;;;10468918;28;20221;-79
2022/07/21 11:40:08;;;;;;;6.70;6.20;;;28.60;70.10;;;;;;10462836;28;20307;-80
2022/07/21 11:45:13;;;;;;;6.60;6.20;;;28.60;71.30;;;;;;10458026;28;20689;-78
2022/07/21 11:50:17;;;;;;;7.60;4.97;;;28.70;71.30;;;;;;10466520;28;20571;-79
2022/07/21 11:55:19;;;;;;;6.80;6.40;;;28.60;70.20;;;;;;10451430;28;20229;-79
2022/07/21 12:00:26;;;;;;;6.83;6.43;;;28.50;70.80;;;;;;10470735;28;20294;-79
2022/07/21 12:05:28;;;;;;;7.17;6.77;;;28.40;69.80;;;;;;10465119;28;20304;-79
2022/07/21 12:10:30;;;;;;;6.80;6.40;;;28.40;69.50;;;;;;10435619;28;20198;-79
2022/07/21 12:15:35;;;;;;;6.60;6.20;;;28.30;70.20;;;;;;10467961;28;20221;-79
2022/07/21 12:20:39;;;;;;;6.40;6.00;;;28.30;74.30;;;;;;10469559;28;20662;-79
2022/07/21 12:25:42;;;;;;;7.40;6.60;;;28.30;69.30;;;;;;10461989;28;20275;-79
2022/07/21 12:30:49;;;;;;;6.77;6.27;;;28.10;69.80;;;;;;10464540;28;20189;-80
2022/07/21 12:35:59;;;;;;;7.10;6.40;;;28.00;66.50;;;;;;10464776;28;20248;-79
2022/07/21 12:41:02;;;;;;;6.10;5.60;;;27.90;70.30;;;;;;10466799;28;20221;-79
2022/07/21 12:46:11;;;;;;;6.90;6.40;;;28.00;69.80;;;;;;10465642;28;20807;-79
2022/07/21 12:51:15;;;;;;;7.20;6.60;;;28.00;70.80;;;;;;10459005;28;20200;-79
2022/07/21 12:56:20;;;;;;;8.23;7.60;;;28.00;72.60;;;;;;10461121;28;20231;-79
2022/07/21 13:01:24;;;;;;;8.70;8.00;;;28.20;73.20;;;;;;10463984;28;20220;-79
2022/07/21 13:06:27;;;;;;;7.93;7.43;;;28.30;70.90;;;;;;10454547;28;20700;-79
2022/07/21 13:11:29;;;;;;;7.90;7.30;;;28.30;71.20;;;;;;10465127;28;20209;-79
2022/07/21 13:16:32;;;;;;;9.03;8.43;;;28.30;71.30;;;;;;10459210;28;20231;-79
2022/07/21 13:21:34;;;;;;;9.60;8.60;;;28.30;69.10;;;;;;10462867;28;20232;-79
2022/07/21 13:26:36;;;;;;;8.53;7.93;;;28.30;70.60;;;;;;10462610;28;20229;-77
2022/07/21 13:31:40;;;;;;;8.20;7.70;;;28.20;71.90;;;;;;10435153;28;20198;-78
2022/07/21 13:36:42;;;;;;;8.83;8.03;;;28.20;74.30;;;;;;10436229;28;20866;-78
2022/07/21 13:41:44;;;;;;;7.70;7.20;;;28.30;71.00;;;;;;10438817;28;20218;-77
2022/07/21 13:46:48;;;;;;;8.60;8.00;;;28.40;72.80;;;;;;10429533;28;20933;-78
2022/07/21 13:51:50;;;;;;;8.27;7.57;;;28.30;71.40;;;;;;10447043;28;20216;-80
2022/07/21 13:56:52;;;;;;;9.20;8.30;;;28.30;71.40;;;;;;10449463;28;20232;-78
2022/07/21 14:01:56;;;;;;;8.33;7.50;;;28.20;70.60;;;;;;10427100;28;20218;-79
2022/07/21 14:06:58;;;;;;;8.17;7.60;;;28.10;72.80;;;;;;10436034;28;20271;-78
2022/07/21 14:12:00;;;;;;;8.30;7.60;;;28.00;72.60;;;;;;10444525;28;20193;-78
2022/07/21 14:17:04;;;;;;;7.37;6.83;;;27.90;71.60;;;;;;10445602;28;20285;-79
2022/07/21 14:22:06;;;;;;;8.10;7.60;;;27.90;72.00;;;;;;10417392;28;20225;-78
2022/07/21 14:27:08;;;;;;;7.47;6.80;;;27.80;73.80;;;;;;10420908;28;20719;-79
2022/07/21 14:32:12;;;;;;;7.57;7.07;;;27.80;71.50;;;;;;10422864;28;20194;-79
2022/07/21 14:37:14;;;;;;;7.97;7.47;;;27.80;72.80;;;;;;10418321;28;20221;-80
2022/07/21 14:42:17;;;;;;;7.60;6.90;;;27.90;70.30;;;;;;10432419;28;20228;-79
2022/07/21 14:47:22;;;;;;;7.63;7.03;;;27.90;70.30;;;;;;10434514;28;20628;-79
2022/07/21 14:52:24;;;;;;;7.73;7.23;;;28.00;69.30;;;;;;10416668;28;20733;-79
2022/07/21 14:57:27;;;;;;;6.90;6.50;;;28.10;66.60;;;;;;10435998;28;20233;-79
2022/07/21 15:02:30;;;;;;;7.27;6.77;;;28.10;68.60;;;;;;10433356;28;20293;-80
2022/07/21 15:07:33;;;;;;;7.47;6.83;;;28.30;69.20;;;;;;10426567;28;20218;-79
2022/07/21 15:12:35;;;;;;;7.00;6.57;;;28.30;68.60;;;;;;10420713;28;20308;-79
2022/07/21 15:17:40;;;;;;;7.17;6.60;;;28.40;74.10;;;;;;10433971;28;20303;-79
2022/07/21 15:22:43;;;;;;;6.00;5.60;;;28.40;68.90;;;;;;10431724;28;20227;-79
2022/07/21 15:27:45;;;;;;;6.87;6.37;;;28.40;70.90;;;;;;10445740;28;20225;-79
2022/07/21 15:32:48;;;;;;;6.80;6.40;;;28.40;68.90;;;;;;10451461;28;20209;-79
2022/07/21 15:37:51;;;;;;;6.80;6.40;;;28.40;68.00;;;;;;10449588;28;20258;-80
2022/07/21 15:42:54;;;;;;;6.43;5.97;;;28.30;70.30;;;;;;10434457;28;20309;-79
2022/07/21 15:47:59;;;;;;;7.40;6.70;;;28.20;69.90;;;;;;10452863;28;20217;-79
2022/07/21 15:53:02;;;;;;;7.40;6.80;;;28.10;70.40;;;;;;10456410;28;20677;-79
2022/07/21 15:58:04;;;;;;;6.03;5.63;;;28.10;69.10;;;;;;10459837;28;20228;-79
2022/07/21 16:03:07;;;;;;;6.63;6.13;;;28.20;67.60;;;;;;10446891;28;20223;-79
2022/07/21 16:08:12;;;;;;;5.57;5.17;;;28.20;71.90;;;;;;10454230;28;20799;-79
2022/07/21 16:13:14;;;;;;;9.90;9.10;;;28.10;68.90;;;;;;10455437;28;20208;-79
2022/07/21 16:18:19;;;;;;;6.73;6.20;;;28.10;70.00;;;;;;10460982;28;20700;-79
2022/07/21 16:23:21;;;;;;;6.80;6.20;;;28.10;69.00;;;;;;10471774;28;20212;-79
2022/07/21 16:28:23;;;;;;;6.37;5.87;;;27.90;70.70;;;;;;10450646;28;20285;-79
2022/07/21 16:33:26;;;;;;;6.43;6.00;;;27.70;75.30;;;;;;10464614;28;20228;-78
2022/07/21 16:38:29;;;;;;;6.03;5.63;;;27.60;74.90;;;;;;10466594;28;20259;-78
2022/07/21 16:43:31;;;;;;;6.33;5.93;;;27.50;73.70;;;;;;10452176;28;20208;-79
2022/07/21 16:48:34;;;;;;;5.57;5.17;;;27.40;75.20;;;;;;10453934;28;20243;-78
2022/07/21 16:53:37;;;;;;;6.70;6.30;;;27.30;72.40;;;;;;10458102;28;20213;-79
2022/07/21 16:58:39;;;;;;;6.00;5.70;;;27.20;73.70;;;;;;10447017;28;20236;-78
2022/07/21 17:03:43;;;;;;;6.07;5.67;;;27.20;77.30;;;;;;10459605;28;20202;-78
2022/07/21 17:08:45;;;;;;;5.87;5.40;;;27.10;74.30;;;;;;10441166;28;20220;-79
2022/07/21 17:13:47;;;;;;;6.40;6.00;;;27.00;78.10;;;;;;10443374;28;20216;-79
2022/07/21 17:18:51;;;;;;;6.17;5.67;;;27.00;74.20;;;;;;10455878;28;20291;-79
2022/07/21 17:23:53;;;;;;;5.50;5.20;;;27.10;71.40;;;;;;10452909;28;20211;-79
2022/07/21 17:28:55;;;;;;;6.83;6.37;;;27.20;78.10;;;;;;10465697;28;20579;-78
2022/07/21 17:33:58;;;;;;;6.70;6.13;;;27.20;76.20;;;;;;10463855;28;20209;-79
2022/07/21 17:39:00;;;;;;;6.17;5.67;;;27.30;75.20;;;;;;10430874;28;20217;-80
2022/07/21 17:44:03;;;;;;;6.50;5.90;;;27.40;71.40;;;;;;10439406;28;20196;-79
2022/07/21 17:49:06;;;;;;;6.00;5.60;;;27.40;69.80;;;;;;10450756;28;20286;-79
2022/07/21 17:54:08;;;;;;;5.90;5.50;;;27.40;69.20;;;;;;10451800;28;20240;-79
2022/07/21 17:59:10;;;;;;;5.80;5.23;;;27.30;68.20;;;;;;10448802;28;20258;-79
2022/07/21 18:04:14;;;;;;;6.17;5.67;;;27.20;69.60;;;;;;10452015;28;20201;-78
2022/07/21 18:09:16;;;;;;;7.07;6.53;;;27.20;70.90;;;;;;10446143;28;20218;-78
2022/07/21 18:14:18;;;;;;;6.37;5.97;;;27.10;69.90;;;;;;10444471;28;20205;-78
2022/07/21 18:19:21;;;;;;;6.10;5.60;;;27.00;70.80;;;;;;10453154;28;20248;-79
2022/07/21 18:24:24;;;;;;;6.67;6.17;;;26.90;70.40;;;;;;10464243;28;20200;-78
2022/07/21 18:29:26;;;;;;;6.50;6.10;;;26.80;72.80;;;;;;10463248;28;20198;-78
2022/07/21 18:34:30;;;;;;;6.73;6.23;;;26.70;72.40;;;;;;10457991;28;20285;-78
2022/07/21 18:39:32;;;;;;;6.40;6.00;;;26.60;73.40;;;;;;10438014;28;20226;-78
2022/07/21 18:44:34;;;;;;;6.57;6.07;;;26.50;74.30;;;;;;10438706;28;20202;-79
2022/07/21 18:49:38;;;;;;;7.10;6.47;;;26.50;74.00;;;;;;10417053;28;20654;-79
2022/07/21 18:59:46;;;;;;;6.80;6.30;;;26.30;77.30;;;;;;10435515;28;20230;-80
2022/07/21 19:04:49;;;;;;;6.57;6.17;;;26.30;78.70;;;;;;10439371;28;20228;-84
2022/07/21 19:09:51;;;;;;;7.37;6.87;;;26.20;73.10;;;;;;10439353;28;20200;-80
2022/07/21 19:14:53;;;;;;;6.13;5.73;;;26.20;76.50;;;;;;10418918;28;20226;-80
2022/07/21 19:19:57;;;;;;;6.57;6.07;;;26.10;80.70;;;;;;10417244;28;20226;-82
2022/07/21 19:24:59;;;;;;;6.50;5.90;;;26.00;79.10;;;;;;10418159;28;20233;-81
2022/07/21 19:30:01;;;;;;;6.77;6.23;;;26.00;86.60;;;;;;10398300;28;20280;-80
2022/07/21 19:35:05;;;;;;;7.03;6.33;;;25.90;82.40;;;;;;10400993;28;20256;-80
2022/07/21 19:40:09;;;;;;;7.00;6.43;;;25.80;80.40;;;;;;10399648;28;20284;-81
2022/07/21 19:45:11;;;;;;;6.70;6.20;;;25.70;79.50;;;;;;10386347;28;20226;-80
2022/07/21 19:50:15;;;;;;;6.60;6.03;;;25.60;80.00;;;;;;10415956;28;20565;-79
2022/07/21 19:55:18;;;;;;;7.00;6.30;;;25.50;79.70;;;;;;10415645;28;20233;-79
2022/07/21 20:00:21;;;;;;;6.70;6.20;;;25.30;80.10;;;;;;10406259;28;20250;-79
2022/07/21 20:05:24;;;;;;;6.63;6.13;;;25.10;81.30;;;;;;10398411;28;20229;-79
2022/07/21 20:15:44;;;;;;;6.63;6.03;;;24.90;81.90;;;;;;10399418;28;20664;-79
2022/07/21 20:20:47;;;;;;;6.47;6.07;;;24.80;82.00;;;;;;10401501;28;20634;-79
2022/07/21 20:25:49;;;;;;;6.50;6.00;;;24.70;82.20;;;;;;10397100;28;20232;-79
2022/07/21 20:30:51;;;;;;;7.73;7.10;;;24.50;82.70;;;;;;10413784;28;20217;-79
2022/07/21 20:35:55;;;;;;;7.20;6.50;;;24.50;83.60;;;;;;10393611;28;20253;-79
2022/07/21 20:40:58;;;;;;;7.27;6.63;;;24.30;83.40;;;;;;10406882;28;20628;-78
2022/07/21 20:46:03;;;;;;;8.27;7.57;;;24.30;83.90;;;;;;10408955;28;20229;-79
2022/07/21 20:51:06;;;;;;;7.60;6.90;;;24.30;85.10;;;;;;10390625;28;20202;-79
2022/07/21 20:56:08;;;;;;;8.10;7.50;;;24.20;83.90;;;;;;10415151;28;20670;-80
2022/07/21 21:01:11;;;;;;;6.90;6.40;;;24.10;84.30;;;;;;10409249;28;20648;-79
2022/07/21 21:06:15;;;;;;;7.57;6.97;;;24.00;85.60;;;;;;10389565;28;20222;-79
2022/07/21 21:11:17;;;;;;;7.47;6.97;;;24.00;85.80;;;;;;10391196;28;20316;-79
2022/07/21 21:16:19;;;;;;;7.83;7.23;;;23.90;86.40;;;;;;10421722;28;20719;-79
2022/07/21 21:21:22;;;;;;;7.43;6.73;;;24.00;86.90;;;;;;10392402;28;20240;-79
2022/07/21 21:26:24;;;;;;;7.87;7.23;;;23.90;85.70;;;;;;10386769;28;20308;-78
2022/07/21 21:31:26;;;;;;;8.10;7.50;;;23.90;86.90;;;;;;10404989;28;20241;-78
2022/07/21 21:36:30;;;;;;;7.13;6.63;;;23.80;87.30;;;;;;10395940;28;21109;-78
2022/07/21 21:41:33;;;;;;;8.17;7.57;;;23.80;89.10;;;;;;10403410;28;20312;-79
2022/07/21 21:46:35;;;;;;;7.83;7.23;;;23.80;87.10;;;;;;10392828;28;20224;-79
2022/07/21 21:51:38;;;;;;;7.33;6.70;;;23.70;87.60;;;;;;10389394;28;20204;-79
2022/07/21 21:56:40;;;;;;;7.27;6.67;;;23.60;87.50;;;;;;10401931;28;20276;-79
2022/07/21 22:01:43;;;;;;;7.87;7.27;;;23.60;87.50;;;;;;10401833;28;20279;-79
2022/07/21 22:06:46;;;;;;;7.67;7.10;;;23.50;89.70;;;;;;10400845;28;20225;-79
2022/07/21 22:11:49;;;;;;;8.10;7.53;;;23.50;88.50;;;;;;10412885;28;20614;-79
2022/07/21 22:16:51;;;;;;;7.70;7.00;;;23.50;88.60;;;;;;10409101;28;20257;-79
2022/07/21 22:21:55;;;;;;;5.90;5.50;;;23.40;89.30;;;;;;10408597;28;20795;-79
2022/07/21 22:26:57;;;;;;;8.60;7.90;;;23.40;90.10;;;;;;10414345;28;20727;-79
2022/07/21 22:31:59;;;;;;;6.90;6.40;;;23.40;90.30;;;;;;10401414;28;20206;-78
2022/07/21 22:37:02;;;;;;;7.90;7.40;;;23.30;90.60;;;;;;10421932;28;20727;-79
2022/07/21 22:42:05;;;;;;;7.80;7.20;;;23.30;90.20;;;;;;10416320;28;20284;-79
2022/07/21 22:47:07;;;;;;;7.53;6.93;;;23.30;90.70;;;;;;10401999;28;20641;-79
2022/07/21 22:52:11;;;;;;;8.00;7.40;;;23.30;90.30;;;;;;10418121;28;20198;-79
2022/07/21 22:57:13;;;;;;;8.13;7.43;;;23.30;90.60;;;;;;10421659;28;20232;-79
2022/07/21 23:02:15;;;;;;;7.57;6.87;;;23.30;90.40;;;;;;10412150;28;20240;-79
2022/07/21 23:07:18;;;;;;;6.83;6.37;;;23.30;91.20;;;;;;10403431;28;20735;-79
2022/07/21 23:12:20;;;;;;;8.27;7.70;;;23.20;91.30;;;;;;10408011;28;20217;-78
2022/07/21 23:17:22;;;;;;;8.90;8.17;;;23.10;91.10;;;;;;10405737;28;20221;-78
2022/07/21 23:22:26;;;;;;;7.87;7.37;;;23.10;91.30;;;;;;10409992;28;20226;-77
2022/07/21 23:27:28;;;;;;;8.43;7.80;;;23.10;91.60;;;;;;10385368;28;20300;-79
2022/07/21 23:32:30;;;;;;;7.90;7.30;;;23.00;91.60;;;;;;10409520;28;20292;-78
2022/07/21 23:37:34;;;;;;;7.67;7.13;;;23.00;91.90;;;;;;10372004;28;20218;-80
2022/07/21 23:42:36;;;;;;;7.87;7.07;;;23.00;90.70;;;;;;10394154;28;20225;-77
2022/07/21 23:47:38;;;;;;;8.10;7.50;;;23.00;91.10;;;;;;10408176;28;20309;-78
2022/07/21 23:52:41;;;;;;;7.77;7.27;;;22.90;91.90;;;;;;10402587;28;20230;-78
2022/07/21 23:57:44;;;;;;;7.90;7.37;;;22.90;91.80;;;;;;10404426;28;20729;-79
